Time;durP1;ratioP1;P1;durP2;ratioP2;P2;SDS_P1;SDS_P2;PMS_P1;PMS_P2;Temp;Humidity;BMP_temperature;BMP_pressure;BME280_temperature;BME280_humidity;BME280_pressure;Samples;Min_cycle;Max_cycle;Signal;HPM_P1;HPM_P2
2021/10/15 00:02:06;;;;;;;5.50;3.78;;;;;;;;;;5033301;28;20059;-59
2021/10/15 00:04:33;;;;;;;5.78;4.20;;;;;;;;;;5033391;28;20132;-56
2021/10/15 00:07:00;;;;;;;6.85;3.65;;;;;;;;;;5033260;28;20183;-57
2021/10/15 00:09:27;;;;;;;6.35;3.83;;;;;;;;;;5032512;28;20616;-58
2021/10/15 00:11:53;;;;;;;6.68;3.70;;;;;;;;;;5032132;28;20478;-58
2021/10/15 00:14:20;;;;;;;5.80;3.75;;;;;;;;;;5033247;28;20124;-59
2021/10/15 00:16:47;;;;;;;5.95;3.35;;;;;;;;;;5032115;28;20107;-59
2021/10/15 00:19:14;;;;;;;7.10;3.72;;;;;;;;;;5061282;23;20041;-52
2021/10/15 00:21:41;;;;;;;5.20;3.60;;;;;;;;;;5032676;28;20041;-48
2021/10/15 00:24:07;;;;;;;5.38;3.55;;;;;;;;;;5031665;28;20042;-53
2021/10/15 00:26:34;;;;;;;5.10;3.40;;;;;;;;;;5031847;28;20541;-48
2021/10/15 00:29:03;;;;;;;7.95;3.65;;;;;;;;;;5032279;28;20048;-53
2021/10/15 00:31:29;;;;;;;5.82;3.97;;;;;;;;;;5032362;28;20045;-53
2021/10/15 00:33:56;;;;;;;5.72;3.17;;;;;;;;;;5031572;28;20068;-53
2021/10/15 00:36:23;;;;;;;6.93;4.13;;;;;;;;;;5031049;28;20064;-54
2021/10/15 00:38:50;;;;;;;5.80;3.80;;;;;;;;;;5031517;28;20041;-56
2021/10/15 00:41:17;;;;;;;5.05;3.47;;;;;;;;;;5032020;28;20045;-53
2021/10/15 00:44:00;;;;;;;6.25;3.53;;;;;;;;;;5031448;28;20048;-53
2021/10/15 00:46:27;;;;;;;5.32;3.60;;;;;;;;;;5031165;28;20051;-54
2021/10/15 00:48:54;;;;;;;5.38;3.53;;;;;;;;;;5031553;28;20059;-57
2021/10/15 00:51:21;;;;;;;5.40;3.60;;;;;;;;;;5031956;28;20112;-54
2021/10/15 00:53:49;;;;;;;5.05;3.30;;;;;;;;;;5030652;28;20429;-56
2021/10/15 00:56:16;;;;;;;5.43;3.78;;;;;;;;;;5030749;28;20052;-53
2021/10/15 00:58:43;;;;;;;6.43;3.55;;;;;;;;;;5031385;28;20049;-55
2021/10/15 01:01:10;;;;;;;6.53;4.18;;;;;;;;;;5030711;28;20060;-51
2021/10/15 01:03:37;;;;;;;5.00;3.22;;;;;;;;;;5030781;28;20049;-53
2021/10/15 01:06:05;;;;;;;6.35;3.42;;;;;;;;;;5031639;28;20045;-49
2021/10/15 01:08:36;;;;;;;4.78;2.80;;;;;;;;;;5023433;28;20069;-51
2021/10/15 01:11:04;;;;;;;5.22;3.15;;;;;;;;;;5040959;28;20473;-53
2021/10/15 01:13:31;;;;;;;5.20;3.00;;;;;;;;;;5029604;28;20133;-49
2021/10/15 01:16:04;;;;;;;5.00;3.20;;;;;;;;;;5031122;28;20517;-49
2021/10/15 01:18:31;;;;;;;;;;;;;;;;;;5031279;28;20038;-51
2021/10/15 01:20:59;;;;;;;4.05;2.70;;;;;;;;;;5031204;28;20411;-49
2021/10/15 01:23:26;;;;;;;5.70;3.42;;;;;;;;;;5030261;28;20063;-51
2021/10/15 01:25:53;;;;;;;4.65;3.00;;;;;;;;;;5030794;28;20083;-51
2021/10/15 01:28:21;;;;;;;4.70;2.88;;;;;;;;;;5046453;28;20037;-50
2021/10/15 01:30:48;;;;;;;4.25;2.45;;;;;;;;;;5023438;28;20041;-48
2021/10/15 01:33:15;;;;;;;4.10;2.78;;;;;;;;;;5030410;28;20124;-50
2021/10/15 01:35:42;;;;;;;4.00;2.22;;;;;;;;;;5033249;28;20128;-49
2021/10/15 01:38:09;;;;;;;3.92;2.50;;;;;;;;;;5031902;28;20045;-49
2021/10/15 01:40:36;;;;;;;4.18;2.40;;;;;;;;;;5031085;28;20643;-48
2021/10/15 01:43:03;;;;;;;4.47;2.47;;;;;;;;;;5030683;28;20045;-48
2021/10/15 01:45:31;;;;;;;4.10;2.42;;;;;;;;;;5030313;28;20051;-51
2021/10/15 01:47:59;;;;;;;3.25;2.20;;;;;;;;;;5025838;28;20356;-50
2021/10/15 01:50:26;;;;;;;3.97;2.53;;;;;;;;;;5011246;28;20100;-49
2021/10/15 01:52:53;;;;;;;4.63;2.25;;;;;;;;;;5029039;28;20095;-51
2021/10/15 01:55:21;;;;;;;4.38;2.63;;;;;;;;;;5030155;28;20045;-47
2021/10/15 01:57:48;;;;;;;3.72;2.40;;;;;;;;;;5023163;28;20495;-51
2021/10/15 02:00:15;;;;;;;6.63;2.20;;;;;;;;;;5030364;28;20128;-48
2021/10/15 02:02:43;;;;;;;4.55;2.50;;;;;;;;;;5030559;28;20045;-52
2021/10/15 02:05:11;;;;;;;4.82;2.60;;;;;;;;;;5030077;28;20045;-51
2021/10/15 02:07:38;;;;;;;4.97;2.63;;;;;;;;;;5030186;28;20458;-51
2021/10/15 02:10:05;;;;;;;4.32;2.60;;;;;;;;;;5030950;28;20407;-49
2021/10/15 02:12:32;;;;;;;3.95;2.67;;;;;;;;;;5029330;28;20445;-52
2021/10/15 02:14:59;;;;;;;4.60;2.78;;;;;;;;;;5029960;28;20084;-48
2021/10/15 02:17:25;;;;;;;4.40;2.33;;;;;;;;;;5012929;28;20054;-48
2021/10/15 02:19:52;;;;;;;3.63;2.20;;;;;;;;;;5018941;28;20044;-50
2021/10/15 02:22:19;;;;;;;4.18;2.42;;;;;;;;;;5030328;28;20045;-49
2021/10/15 02:24:46;;;;;;;3.88;2.42;;;;;;;;;;5029330;28;20663;-48
2021/10/15 02:27:12;;;;;;;3.85;2.25;;;;;;;;;;5030083;28;20150;-50
2021/10/15 02:29:39;;;;;;;4.25;2.40;;;;;;;;;;5029554;28;20089;-48
2021/10/15 02:32:06;;;;;;;4.30;2.40;;;;;;;;;;5030328;28;20256;-47
2021/10/15 02:34:33;;;;;;;4.75;2.47;;;;;;;;;;5029192;28;20037;-51
2021/10/15 02:37:00;;;;;;;4.45;2.30;;;;;;;;;;5030199;28;20140;-52
2021/10/15 02:39:28;;;;;;;4.15;2.60;;;;;;;;;;5029587;28;20080;-52
2021/10/15 02:41:54;;;;;;;5.00;2.42;;;;;;;;;;5028889;28;20041;-53
2021/10/15 02:44:21;;;;;;;3.70;2.33;;;;;;;;;;5029183;28;20103;-55
2021/10/15 02:46:48;;;;;;;4.97;2.53;;;;;;;;;;5045069;28;20417;-54
2021/10/15 02:49:16;;;;;;;5.68;2.60;;;;;;;;;;5012195;28;20147;-55
2021/10/15 02:51:42;;;;;;;4.47;2.55;;;;;;;;;;5010145;28;20045;-54
2021/10/15 02:54:09;;;;;;;4.15;2.65;;;;;;;;;;5019694;28;20390;-51
2021/10/15 02:56:36;;;;;;;4.00;2.63;;;;;;;;;;5029134;28;20049;-50
2021/10/15 02:59:03;;;;;;;4.63;2.67;;;;;;;;;;5031913;28;20045;-54
2021/10/15 03:01:29;;;;;;;4.15;2.50;;;;;;;;;;5033627;28;20048;-54
2021/10/15 03:03:56;;;;;;;7.40;2.88;;;;;;;;;;5032860;28;20132;-53
2021/10/15 03:06:23;;;;;;;4.38;2.85;;;;;;;;;;5033385;28;20049;-48
2021/10/15 03:08:50;;;;;;;4.45;2.55;;;;;;;;;;5032489;28;20056;-51
2021/10/15 03:11:16;;;;;;;4.53;3.10;;;;;;;;;;5033581;28;20034;-49
2021/10/15 03:13:43;;;;;;;5.03;2.42;;;;;;;;;;5032429;28;20783;-51
2021/10/15 03:16:10;;;;;;;4.95;2.70;;;;;;;;;;5033432;28;20076;-51
2021/10/15 03:18:37;;;;;;;4.68;2.80;;;;;;;;;;5032836;28;20173;-56
2021/10/15 03:21:04;;;;;;;5.55;3.13;;;;;;;;;;5049119;28;20041;-56
2021/10/15 03:23:31;;;;;;;5.28;3.38;;;;;;;;;;5033087;28;20060;-53
2021/10/15 03:25:58;;;;;;;4.95;2.92;;;;;;;;;;5033690;28;20052;-54
2021/10/15 03:28:25;;;;;;;4.00;2.78;;;;;;;;;;5016714;28;20045;-54
2021/10/15 03:30:51;;;;;;;4.35;2.88;;;;;;;;;;5014403;28;20113;-53
2021/10/15 03:33:18;;;;;;;6.68;3.25;;;;;;;;;;5012603;28;20399;-48
2021/10/15 03:35:45;;;;;;;4.45;2.75;;;;;;;;;;5024672;28;20436;-50
2021/10/15 03:38:12;;;;;;;6.43;3.65;;;;;;;;;;5032278;28;20129;-47
2021/10/15 03:40:39;;;;;;;4.90;3.63;;;;;;;;;;5032809;28;20065;-52
2021/10/15 03:43:06;;;;;;;5.53;3.35;;;;;;;;;;5032202;28;20053;-52
2021/10/15 03:45:33;;;;;;;5.70;3.17;;;;;;;;;;5032821;28;20045;-49
2021/10/15 03:48:00;;;;;;;5.45;3.58;;;;;;;;;;5012353;28;20033;-48
2021/10/15 03:50:27;;;;;;;4.53;3.10;;;;;;;;;;5013772;28;20041;-48
2021/10/15 03:52:54;;;;;;;6.60;3.40;;;;;;;;;;5025573;28;20129;-49
2021/10/15 03:55:21;;;;;;;6.15;3.25;;;;;;;;;;5032130;28;20048;-57
2021/10/15 03:57:47;;;;;;;5.38;3.33;;;;;;;;;;5012814;28;20353;-52
2021/10/15 04:00:14;;;;;;;6.22;2.83;;;;;;;;;;5013602;28;20034;-49
2021/10/15 04:02:45;;;;;;;4.95;3.17;;;;;;;;;;5012839;28;20120;-49
2021/10/15 04:05:12;;;;;;;6.47;2.85;;;;;;;;;;5012924;28;20268;-55
2021/10/15 04:07:40;;;;;;;5.20;3.00;;;;;;;;;;5030224;28;20048;-51
2021/10/15 04:10:07;;;;;;;6.18;3.35;;;;;;;;;;5031996;28;20045;-51
2021/10/15 04:12:35;;;;;;;5.93;3.58;;;;;;;;;;5032961;28;20143;-51
2021/10/15 04:15:02;;;;;;;7.35;3.45;;;;;;;;;;5032474;28;20125;-53
2021/10/15 04:17:29;;;;;;;5.70;3.28;;;;;;;;;;5031699;28;20124;-55
2021/10/15 04:19:56;;;;;;;5.07;3.67;;;;;;;;;;5032227;28;20053;-53
2021/10/15 04:22:25;;;;;;;6.57;3.08;;;;;;;;;;5032414;28;20443;-55
2021/10/15 04:24:52;;;;;;;5.90;3.25;;;;;;;;;;5032163;28;20063;-56
2021/10/15 04:27:19;;;;;;;4.40;2.83;;;;;;;;;;5046733;28;20046;-55
2021/10/15 04:29:46;;;;;;;7.53;3.20;;;;;;;;;;5027077;28;20448;-54
2021/10/15 04:32:13;;;;;;;5.97;3.58;;;;;;;;;;5012563;28;20069;-55
2021/10/15 04:34:40;;;;;;;8.68;4.03;;;;;;;;;;5017691;28;20033;-56
2021/10/15 04:37:06;;;;;;;6.68;4.03;;;;;;;;;;5031822;28;20402;-53
2021/10/15 04:39:33;;;;;;;6.15;3.42;;;;;;;;;;5031556;28;20485;-51
2021/10/15 04:42:00;;;;;;;6.15;2.95;;;;;;;;;;5032197;28;20370;-53
2021/10/15 04:44:27;;;;;;;5.18;3.10;;;;;;;;;;5030733;28;20053;-55
2021/10/15 04:46:54;;;;;;;5.57;3.15;;;;;;;;;;5030500;28;20049;-55
2021/10/15 04:49:20;;;;;;;6.97;3.55;;;;;;;;;;5031859;28;20459;-55
2021/10/15 04:51:47;;;;;;;7.30;3.92;;;;;;;;;;5031998;28;20437;-52
2021/10/15 04:54:14;;;;;;;6.40;3.55;;;;;;;;;;5031598;28;20042;-54
2021/10/15 04:56:40;;;;;;;5.55;3.20;;;;;;;;;;5031174;28;20049;-51
2021/10/15 04:59:07;;;;;;;5.88;3.00;;;;;;;;;;5031374;28;20045;-54
2021/10/15 05:01:34;;;;;;;5.10;3.08;;;;;;;;;;5031647;28;20523;-55
2021/10/15 05:04:01;;;;;;;5.90;3.25;;;;;;;;;;5031648;28;20037;-54
2021/10/15 05:06:28;;;;;;;6.15;3.60;;;;;;;;;;5031641;28;20417;-53
2021/10/15 05:09:02;;;;;;;5.70;3.50;;;;;;;;;;5030794;28;20395;-53
2021/10/15 05:11:30;;;;;;;7.05;3.45;;;;;;;;;;5012130;28;20120;-53
2021/10/15 05:13:57;;;;;;;6.07;3.35;;;;;;;;;;5011558;28;20129;-53
2021/10/15 05:16:24;;;;;;;5.88;3.20;;;;;;;;;;5027572;28;20061;-53
2021/10/15 05:18:51;;;;;;;4.47;2.88;;;;;;;;;;5030611;28;20506;-54
2021/10/15 05:21:18;;;;;;;5.95;3.28;;;;;;;;;;5031003;28;20126;-51
2021/10/15 05:23:45;;;;;;;7.70;4.60;;;;;;;;;;5031495;28;20049;-54
2021/10/15 05:26:11;;;;;;;7.03;4.47;;;;;;;;;;5031338;28;20045;-48
2021/10/15 05:28:38;;;;;;;6.88;4.22;;;;;;;;;;5043074;28;20124;-49
2021/10/15 05:31:05;;;;;;;7.43;4.00;;;;;;;;;;5012287;28;20041;-53
2021/10/15 05:33:32;;;;;;;6.18;4.40;;;;;;;;;;5011464;28;20048;-51
2021/10/15 05:35:58;;;;;;;10.35;4.22;;;;;;;;;;5011887;28;20125;-50
2021/10/15 05:38:25;;;;;;;10.57;4.35;;;;;;;;;;5013961;28;20069;-53
2021/10/15 05:40:52;;;;;;;9.48;4.28;;;;;;;;;;5015608;28;20042;-53
2021/10/15 05:43:19;;;;;;;8.43;4.03;;;;;;;;;;5021599;28;20042;-56
2021/10/15 05:45:46;;;;;;;9.90;4.82;;;;;;;;;;5030180;28;20046;-52
2021/10/15 05:48:13;;;;;;;9.80;4.65;;;;;;;;;;5028011;28;20045;-52
2021/10/15 05:50:42;;;;;;;7.05;4.45;;;;;;;;;;5030926;28;20049;-53
2021/10/15 05:53:12;;;;;;;7.65;4.18;;;;;;;;;;5030933;28;20053;-54
2021/10/15 06:00:56;;;;;;;7.53;4.10;;;;;;;;;;5027686;28;20076;-54
2021/10/15 06:03:25;;;;;;;10.30;4.13;;;;;;;;;;5030760;28;20069;-54
2021/10/15 06:16:32;;;;;;;5.55;2.60;;;;;;;;;;5030434;28;20121;-55
2021/10/15 06:19:10;;;;;;;6.40;2.33;;;;;;;;;;5030635;28;20042;-52
2021/10/15 06:21:37;;;;;;;3.90;2.20;;;;;;;;;;5030740;28;20133;-54
2021/10/15 06:24:04;;;;;;;6.30;2.50;;;;;;;;;;5045711;28;20045;-50
2021/10/15 06:26:31;;;;;;;4.90;2.40;;;;;;;;;;5045969;28;20050;-49
2021/10/15 06:28:57;;;;;;;5.20;2.38;;;;;;;;;;5030259;28;20129;-51
2021/10/15 06:31:24;;;;;;;7.47;2.75;;;;;;;;;;5030201;28;20045;-52
2021/10/15 06:33:51;;;;;;;6.57;2.35;;;;;;;;;;5047724;28;20053;-58
2021/10/15 06:36:18;;;;;;;9.27;2.13;;;;;;;;;;5048516;28;20037;-48
2021/10/15 06:38:45;;;;;;;4.53;2.20;;;;;;;;;;5034289;28;20061;-48
2021/10/15 06:41:12;;;;;;;7.45;2.10;;;;;;;;;;5049736;28;20071;-51
2021/10/15 06:43:39;;;;;;;4.93;2.00;;;;;;;;;;5049283;28;20479;-51
2021/10/15 06:46:09;;;;;;;8.63;2.28;;;;;;;;;;5032844;28;20058;-51
2021/10/15 06:48:36;;;;;;;4.00;2.03;;;;;;;;;;5034030;28;22032;-50
2021/10/15 06:51:03;;;;;;;6.40;1.92;;;;;;;;;;5034352;28;20038;-53
2021/10/15 06:53:29;;;;;;;6.57;2.40;;;;;;;;;;5033815;28;20046;-50
2021/10/15 06:55:57;;;;;;;5.50;1.80;;;;;;;;;;5019984;28;20507;-52
2021/10/15 06:58:23;;;;;;;4.90;2.17;;;;;;;;;;5014615;28;20131;-55
2021/10/15 07:00:50;;;;;;;4.22;2.10;;;;;;;;;;5020236;28;20050;-50
2021/10/15 07:03:19;;;;;;;5.15;2.20;;;;;;;;;;5048520;28;20386;-53
2021/10/15 07:05:46;;;;;;;3.15;1.77;;;;;;;;;;5045666;28;20403;-54
2021/10/15 07:08:12;;;;;;;5.25;1.90;;;;;;;;;;5015407;28;20470;-52
2021/10/15 07:10:40;;;;;;;6.13;2.20;;;;;;;;;;5049589;28;20040;-49
2021/10/15 07:13:07;;;;;;;5.00;2.17;;;;;;;;;;5029829;28;20658;-51
2021/10/15 07:15:34;;;;;;;6.57;2.22;;;;;;;;;;5044307;28;20049;-51
2021/10/15 07:18:01;;;;;;;3.70;2.10;;;;;;;;;;5014178;28;20149;-48
2021/10/15 07:20:28;;;;;;;4.03;1.77;;;;;;;;;;5014014;28;20402;-51
2021/10/15 07:22:55;;;;;;;6.35;2.45;;;;;;;;;;5014017;28;20092;-53
2021/10/15 07:25:22;;;;;;;5.45;2.33;;;;;;;;;;5020028;28;20463;-55
2021/10/15 07:27:49;;;;;;;5.22;1.83;;;;;;;;;;5032371;28;20091;-56
2021/10/15 07:30:16;;;;;;;3.97;2.10;;;;;;;;;;5023296;28;20800;-55
2021/10/15 07:32:43;;;;;;;4.47;2.03;;;;;;;;;;5021715;28;20470;-56
2021/10/15 07:35:10;;;;;;;3.85;1.90;;;;;;;;;;5021735;28;20121;-57
2021/10/15 07:37:37;;;;;;;6.57;2.63;;;;;;;;;;5026765;28;20478;-49
2021/10/15 07:40:04;;;;;;;3.50;1.90;;;;;;;;;;5046910;28;20044;-49
2021/10/15 07:42:33;;;;;;;4.90;2.03;;;;;;;;;;5036971;28;20041;-48
2021/10/15 07:44:59;;;;;;;3.90;1.98;;;;;;;;;;5042461;28;20053;-51
2021/10/15 07:47:26;;;;;;;3.58;2.00;;;;;;;;;;5038657;28;20536;-53
2021/10/15 07:49:53;;;;;;;4.32;1.80;;;;;;;;;;5045455;28;20069;-49
2021/10/15 07:52:20;;;;;;;2.83;2.05;;;;;;;;;;5032165;28;20065;-52
2021/10/15 07:54:47;;;;;;;2.88;1.77;;;;;;;;;;5027400;28;20528;-50
2021/10/15 07:57:13;;;;;;;2.90;2.00;;;;;;;;;;5029933;28;20143;-48
2021/10/15 07:59:41;;;;;;;3.83;2.20;;;;;;;;;;5045857;28;20042;-45
2021/10/15 08:02:08;;;;;;;3.58;2.03;;;;;;;;;;5039797;28;20069;-48
2021/10/15 08:04:38;;;;;;;5.50;2.20;;;;;;;;;;5025527;28;20088;-48
2021/10/15 08:07:08;;;;;;;5.97;2.53;;;;;;;;;;5028699;28;20526;-53
2021/10/15 08:09:36;;;;;;;4.90;2.05;;;;;;;;;;5032409;28;20041;-50
2021/10/15 08:12:03;;;;;;;3.67;2.00;;;;;;;;;;5052273;28;20045;-51
2021/10/15 08:14:30;;;;;;;4.85;2.00;;;;;;;;;;5027018;28;20487;-51
2021/10/15 08:16:57;;;;;;;4.55;2.00;;;;;;;;;;5028529;28;20423;-53
2021/10/15 08:19:38;;;;;;;4.63;2.75;;;;;;;;;;5032219;28;20092;-55
2021/10/15 08:22:05;;;;;;;3.65;1.95;;;;;;;;;;5039463;28;20053;-50
2021/10/15 08:24:32;;;;;;;3.85;2.20;;;;;;;;;;5037900;28;20072;-52
2021/10/15 08:26:59;;;;;;;2.90;1.65;;;;;;;;;;5047912;28;20143;-52
2021/10/15 08:29:26;;;;;;;4.13;2.10;;;;;;;;;;5032025;28;20565;-50
2021/10/15 08:31:53;;;;;;;3.17;1.67;;;;;;;;;;5027643;28;20066;-53
2021/10/15 08:34:22;;;;;;;3.78;2.03;;;;;;;;;;5035508;28;20100;-49
2021/10/15 08:36:53;;;;;;;3.97;1.80;;;;;;;;;;5038758;28;20152;-51
2021/10/15 08:39:22;;;;;;;4.18;2.20;;;;;;;;;;5035688;28;20076;-54
2021/10/15 08:41:49;;;;;;;3.67;2.15;;;;;;;;;;5023476;28;20048;-52
2021/10/15 08:44:16;;;;;;;2.47;1.60;;;;;;;;;;5035657;28;20053;-53
2021/10/15 08:46:42;;;;;;;3.65;1.77;;;;;;;;;;5032291;28;20141;-53
2021/10/15 08:49:31;;;;;;;5.65;2.20;;;;;;;;;;5022295;28;20137;-53
2021/10/15 08:51:58;;;;;;;3.65;2.03;;;;;;;;;;5031475;28;20324;-51
2021/10/15 08:54:32;;;;;;;3.55;1.90;;;;;;;;;;5046702;28;20037;-46
2021/10/15 08:56:59;;;;;;;3.08;2.00;;;;;;;;;;5028011;28;20041;-47
2021/10/15 08:59:39;;;;;;;5.35;2.22;;;;;;;;;;5029697;28;20156;-50
2021/10/15 09:02:10;;;;;;;5.57;2.10;;;;;;;;;;5019831;28;20172;-49
2021/10/15 09:04:57;;;;;;;4.10;2.20;;;;;;;;;;5030626;28;20455;-49
2021/10/15 09:07:25;;;;;;;4.20;1.70;;;;;;;;;;5029417;28;20042;-50
2021/10/15 09:10:12;;;;;;;4.05;2.20;;;;;;;;;;5030570;28;20140;-49
2021/10/15 09:12:43;;;;;;;2.88;1.90;;;;;;;;;;5031560;28;20068;-49
2021/10/15 09:15:10;;;;;;;4.10;2.03;;;;;;;;;;5030475;28;20072;-46
2021/10/15 09:17:57;;;;;;;3.40;2.13;;;;;;;;;;5027533;28;20050;-48
2021/10/15 09:20:26;;;;;;;5.22;2.20;;;;;;;;;;5026858;28;20076;-52
2021/10/15 09:23:07;;;;;;;4.95;1.83;;;;;;;;;;5030351;28;20103;-49
2021/10/15 09:25:35;;;;;;;5.18;2.30;;;;;;;;;;5031689;28;20050;-52
2021/10/15 09:28:10;;;;;;;4.32;2.40;;;;;;;;;;5029786;28;20051;-47
2021/10/15 09:30:39;;;;;;;5.20;2.33;;;;;;;;;;5029365;28;20079;-52
2021/10/15 09:33:06;;;;;;;3.55;2.13;;;;;;;;;;5030962;28;20091;-52
2021/10/15 09:35:34;;;;;;;4.13;2.38;;;;;;;;;;5030063;28;20045;-54
2021/10/15 09:38:05;;;;;;;4.13;2.33;;;;;;;;;;5028379;28;20072;-53
2021/10/15 09:40:34;;;;;;;4.30;2.70;;;;;;;;;;5029041;28;20047;-52
2021/10/15 09:43:04;;;;;;;4.25;2.75;;;;;;;;;;5031697;28;20354;-52
2021/10/15 09:45:33;;;;;;;5.93;2.70;;;;;;;;;;5029872;28;20462;-52
2021/10/15 09:48:18;;;;;;;3.80;2.47;;;;;;;;;;5029264;28;20045;-49
2021/10/15 09:50:45;;;;;;;5.05;2.92;;;;;;;;;;5030340;28;20045;-52
2021/10/15 09:53:13;;;;;;;4.03;2.50;;;;;;;;;;5030110;28;20047;-54
2021/10/15 09:55:41;;;;;;;4.40;2.78;;;;;;;;;;5029706;28;20034;-54
2021/10/15 09:58:23;;;;;;;4.03;2.60;;;;;;;;;;5046135;28;20103;-53
2021/10/15 10:00:51;;;;;;;3.47;2.50;;;;;;;;;;5029320;28;20037;-52
2021/10/15 10:03:19;;;;;;;4.68;2.58;;;;;;;;;;5029701;28;20045;-53
2021/10/15 10:05:46;;;;;;;5.72;2.53;;;;;;;;;;5030243;28;20049;-53
2021/10/15 10:08:15;;;;;;;4.72;2.53;;;;;;;;;;5030883;28;20082;-50
2021/10/15 10:10:43;;;;;;;5.75;3.08;;;;;;;;;;5030773;28;20177;-53
2021/10/15 10:13:11;;;;;;;4.18;2.88;;;;;;;;;;5030776;28;20045;-49
2021/10/15 10:15:39;;;;;;;5.20;2.72;;;;;;;;;;5031052;28;20042;-52
2021/10/15 10:18:21;;;;;;;6.38;2.70;;;;;;;;;;5030811;28;20080;-50
2021/10/15 10:20:52;;;;;;;5.22;3.00;;;;;;;;;;5031032;28;20055;-54
2021/10/15 10:23:29;;;;;;;5.32;2.80;;;;;;;;;;5015034;28;20041;-53
2021/10/15 10:25:57;;;;;;;5.75;3.00;;;;;;;;;;5031074;28;20045;-55
2021/10/15 10:28:26;;;;;;;4.93;2.85;;;;;;;;;;5030346;28;20095;-53
2021/10/15 10:31:03;;;;;;;4.18;2.63;;;;;;;;;;5016570;28;20070;-50
2021/10/15 10:33:30;;;;;;;4.15;2.45;;;;;;;;;;5029795;28;20120;-55
2021/10/15 10:36:11;;;;;;;5.25;2.72;;;;;;;;;;5031025;28;20044;-57
2021/10/15 10:38:38;;;;;;;3.92;2.65;;;;;;;;;;5030024;28;20052;-54
2021/10/15 10:41:05;;;;;;;5.28;2.60;;;;;;;;;;5030909;28;20136;-54
2021/10/15 10:43:44;;;;;;;3.70;2.40;;;;;;;;;;5030263;28;20055;-57
2021/10/15 10:46:12;;;;;;;7.00;2.65;;;;;;;;;;5046137;28;20459;-55
2021/10/15 10:48:48;;;;;;;4.78;2.42;;;;;;;;;;5021218;28;20041;-53
2021/10/15 10:51:16;;;;;;;3.95;2.35;;;;;;;;;;5030589;28;20041;-54
2021/10/15 10:54:03;;;;;;;4.45;2.95;;;;;;;;;;5030247;28;20042;-54
2021/10/15 10:56:38;;;;;;;6.22;2.38;;;;;;;;;;5029816;28;20063;-51
2021/10/15 10:59:21;;;;;;;4.13;2.42;;;;;;;;;;5029803;28;20356;-56
2021/10/15 11:02:01;;;;;;;4.10;2.58;;;;;;;;;;5010831;28;20459;-55
2021/10/15 11:04:30;;;;;;;3.53;2.33;;;;;;;;;;5025907;28;20060;-56
2021/10/15 11:06:57;;;;;;;4.45;2.78;;;;;;;;;;5025196;28;20137;-56
2021/10/15 11:09:27;;;;;;;3.80;2.42;;;;;;;;;;5029706;28;20049;-55
2021/10/15 11:11:54;;;;;;;3.53;2.20;;;;;;;;;;5030312;28;20045;-55
2021/10/15 11:14:45;;;;;;;3.40;2.35;;;;;;;;;;5045052;28;20037;-53
2021/10/15 11:17:12;;;;;;;4.32;2.70;;;;;;;;;;5029112;28;20414;-54
2021/10/15 11:19:40;;;;;;;4.82;2.55;;;;;;;;;;5031228;28;20071;-56
2021/10/15 11:22:07;;;;;;;5.25;2.60;;;;;;;;;;5034768;28;20046;-56
2021/10/15 11:24:34;;;;;;;3.72;2.22;;;;;;;;;;5048638;28;20038;-55
2021/10/15 11:27:12;;;;;;;4.18;2.20;;;;;;;;;;5033753;28;20513;-55
2021/10/15 11:29:49;;;;;;;5.05;2.55;;;;;;;;;;5032884;28;20095;-53
2021/10/15 11:32:27;;;;;;;3.95;2.40;;;;;;;;;;5033426;28;20040;-52
2021/10/15 11:35:23;;;;;;;5.35;2.63;;;;;;;;;;5032209;28;20136;-52
2021/10/15 11:38:19;;;;;;;3.60;2.40;;;;;;;;;;5024705;28;20064;-54
2021/10/15 11:40:46;;;;;;;4.47;2.70;;;;;;;;;;5031896;28;20037;-50
2021/10/15 11:43:26;;;;;;;3.47;2.30;;;;;;;;;;5032934;28;20061;-50
2021/10/15 11:45:56;;;;;;;4.00;2.30;;;;;;;;;;5033479;28;20037;-50
2021/10/15 11:48:37;;;;;;;4.45;2.30;;;;;;;;;;5044655;28;20045;-52
2021/10/15 11:51:05;;;;;;;3.40;2.25;;;;;;;;;;5013851;28;20049;-52
2021/10/15 11:53:34;;;;;;;4.70;2.40;;;;;;;;;;5025737;28;20612;-49
2021/10/15 11:56:04;;;;;;;4.75;2.58;;;;;;;;;;5033122;28;20033;-56
2021/10/15 11:58:33;;;;;;;4.65;2.42;;;;;;;;;;5032279;28;20041;-56
2021/10/15 12:01:07;;;;;;;5.30;3.05;;;;;;;;;;5032948;28;20132;-56
2021/10/15 12:04:01;;;;;;;3.65;2.58;;;;;;;;;;5033018;28;20096;-56
2021/10/15 12:06:38;;;;;;;3.53;2.42;;;;;;;;;;5031431;28;20046;-56
2021/10/15 12:09:15;;;;;;;6.75;2.97;;;;;;;;;;5017997;28;20050;-56
2021/10/15 12:11:42;;;;;;;4.55;2.92;;;;;;;;;;5013415;28;20068;-57
2021/10/15 12:14:14;;;;;;;4.55;2.50;;;;;;;;;;5013117;28;20046;-57
2021/10/15 12:16:41;;;;;;;4.05;2.40;;;;;;;;;;5028677;28;20116;-57
2021/10/15 12:19:08;;;;;;;4.32;2.75;;;;;;;;;;5043537;22;20046;-61
2021/10/15 12:21:45;;;;;;;4.20;2.95;;;;;;;;;;5028541;28;20576;-63
2021/10/15 12:24:22;;;;;;;4.18;2.70;;;;;;;;;;5012766;28;20053;-63
2021/10/15 12:27:07;;;;;;;6.30;2.90;;;;;;;;;;5018337;28;20034;-63
2021/10/15 12:29:36;;;;;;;3.83;2.30;;;;;;;;;;5024494;28;20052;-63
2021/10/15 12:32:13;;;;;;;4.05;2.55;;;;;;;;;;5008529;28;20138;-60
2021/10/15 12:34:53;;;;;;;4.72;2.78;;;;;;;;;;4992992;28;20057;-59
2021/10/15 12:37:39;;;;;;;6.20;2.13;;;;;;;;;;4997766;28;20046;-58
2021/10/15 12:40:17;;;;;;;3.90;2.30;;;;;;;;;;5012429;28;20046;-60
2021/10/15 12:42:45;;;;;;;4.88;2.50;;;;;;;;;;5012857;28;20372;-59
2021/10/15 12:45:13;;;;;;;5.07;3.30;;;;;;;;;;5012056;28;20052;-57
2021/10/15 12:47:40;;;;;;;3.75;2.60;;;;;;;;;;5008508;28;20141;-59
2021/10/15 12:50:11;;;;;;;5.38;2.67;;;;;;;;;;5008338;28;20100;-58
2021/10/15 12:52:40;;;;;;;3.65;2.40;;;;;;;;;;5012382;28;20067;-59
2021/10/15 12:55:26;;;;;;;5.75;2.60;;;;;;;;;;5002532;28;20130;-60
2021/10/15 12:58:03;;;;;;;4.10;2.17;;;;;;;;;;4991585;28;20137;-57
2021/10/15 13:00:31;;;;;;;5.53;1.90;;;;;;;;;;5004551;28;20061;-59
2021/10/15 13:03:02;;;;;;;3.75;2.50;;;;;;;;;;5012304;28;20034;-59
2021/10/15 13:05:29;;;;;;;4.35;2.28;;;;;;;;;;4992322;28;20129;-58
2021/10/15 13:07:55;;;;;;;2.80;2.25;;;;;;;;;;4995189;28;20464;-58
2021/10/15 13:10:23;;;;;;;3.45;2.40;;;;;;;;;;5011869;28;20125;-58
2021/10/15 13:12:51;;;;;;;3.47;2.15;;;;;;;;;;5012263;28;20041;-58
2021/10/15 13:15:20;;;;;;;3.72;2.30;;;;;;;;;;5010565;28;20050;-58
2021/10/15 13:17:52;;;;;;;4.43;2.30;;;;;;;;;;5012247;28;20038;-59
2021/10/15 13:20:22;;;;;;;4.45;2.83;;;;;;;;;;5011995;28;20550;-59
2021/10/15 13:22:49;;;;;;;4.45;2.63;;;;;;;;;;5012134;28;20376;-56
2021/10/15 13:25:16;;;;;;;5.82;2.50;;;;;;;;;;5011368;28;20070;-59
2021/10/15 13:27:43;;;;;;;4.22;2.63;;;;;;;;;;5011821;28;20137;-60
2021/10/15 13:30:10;;;;;;;3.72;2.35;;;;;;;;;;5003206;28;20084;-58
2021/10/15 13:32:37;;;;;;;5.25;2.20;;;;;;;;;;4986932;28;20100;-59
2021/10/15 13:35:05;;;;;;;6.72;2.50;;;;;;;;;;5011192;28;20060;-57
2021/10/15 13:37:35;;;;;;;3.95;2.25;;;;;;;;;;5011841;28;20480;-58
2021/10/15 13:40:04;;;;;;;3.35;2.15;;;;;;;;;;5010486;28;20121;-63
2021/10/15 13:42:50;;;;;;;6.53;2.50;;;;;;;;;;5010176;28;20064;-61
2021/10/15 13:50:42;;;;;;;4.22;2.33;;;;;;;;;;4992102;28;20038;-62
2021/10/15 13:53:09;;;;;;;6.38;2.30;;;;;;;;;;5001867;28;20050;-62
2021/10/15 13:56:19;;;;;;;4.25;2.58;;;;;;;;;;5011884;28;20038;-62
2021/10/15 14:00:58;;;;;;;4.57;2.40;;;;;;;;;;5011598;28;20052;-62
2021/10/15 14:06:01;;;;;;;6.05;2.10;;;;;;;;;;5011942;28;20058;-62
2021/10/15 14:08:28;;;;;;;4.85;2.67;;;;;;;;;;5011437;28;20065;-61
2021/10/15 14:10:55;;;;;;;3.72;2.42;;;;;;;;;;4992089;28;20065;-62
2021/10/15 14:13:22;;;;;;;4.07;2.20;;;;;;;;;;4997513;28;20153;-62
2021/10/15 14:15:49;;;;;;;3.78;2.38;;;;;;;;;;5026631;28;20478;-62
2021/10/15 14:18:16;;;;;;;5.45;2.40;;;;;;;;;;5023259;28;20129;-61
2021/10/15 14:20:44;;;;;;;4.15;2.50;;;;;;;;;;5006468;28;20073;-62
2021/10/15 14:23:10;;;;;;;3.67;2.63;;;;;;;;;;4993356;28;20046;-62
2021/10/15 14:25:38;;;;;;;3.80;2.28;;;;;;;;;;5010987;28;20056;-62
2021/10/15 14:28:05;;;;;;;4.43;2.80;;;;;;;;;;5011071;28;20058;-59
2021/10/15 14:30:32;;;;;;;5.32;3.08;;;;;;;;;;5009398;28;20052;-60
2021/10/15 14:33:00;;;;;;;6.07;2.90;;;;;;;;;;5010915;28;20041;-59
2021/10/15 14:35:27;;;;;;;5.82;2.55;;;;;;;;;;5010449;28;20042;-60
2021/10/15 14:37:55;;;;;;;4.38;2.40;;;;;;;;;;5011174;28;20034;-58
2021/10/15 14:40:21;;;;;;;4.30;2.83;;;;;;;;;;4990200;28;20045;-59
2021/10/15 14:42:48;;;;;;;5.22;3.25;;;;;;;;;;5008234;28;20093;-59
2021/10/15 14:45:15;;;;;;;6.15;2.92;;;;;;;;;;5010070;28;20125;-59
2021/10/15 14:47:42;;;;;;;5.05;3.00;;;;;;;;;;5010975;28;20153;-59
2021/10/15 14:50:09;;;;;;;4.78;2.75;;;;;;;;;;5010799;28;20120;-58
2021/10/15 14:52:36;;;;;;;3.22;2.42;;;;;;;;;;4992994;28;20116;-59
2021/10/15 14:55:03;;;;;;;5.28;2.70;;;;;;;;;;5011980;28;20118;-58
2021/10/15 14:57:30;;;;;;;4.07;2.40;;;;;;;;;;5013646;28;20050;-59
2021/10/15 14:59:59;;;;;;;5.20;2.83;;;;;;;;;;5014234;28;20116;-58
2021/10/15 15:02:26;;;;;;;4.38;2.80;;;;;;;;;;5014983;28;20046;-58
2021/10/15 15:04:52;;;;;;;4.60;2.83;;;;;;;;;;5013883;28;20495;-58
2021/10/15 15:07:19;;;;;;;4.25;2.72;;;;;;;;;;5014622;28;20042;-59
2021/10/15 15:09:46;;;;;;;5.63;2.40;;;;;;;;;;5013954;28;20149;-58
2021/10/15 15:12:13;;;;;;;4.60;2.50;;;;;;;;;;5012809;28;20359;-58
2021/10/15 15:14:40;;;;;;;5.15;2.60;;;;;;;;;;5013474;28;20088;-58
2021/10/15 15:17:07;;;;;;;4.22;2.38;;;;;;;;;;5026389;28;20034;-58
2021/10/15 15:19:33;;;;;;;4.50;2.55;;;;;;;;;;4996368;28;20085;-60
2021/10/15 15:22:00;;;;;;;5.05;2.70;;;;;;;;;;5013091;28;20050;-59